createdAt,value
2022-10-14T00:01:24.701Z,16.56
2022-10-14T00:03:51.718Z,16.58
2022-10-14T00:06:21.326Z,16.58
2022-10-14T00:08:47.709Z,16.56
2022-10-14T00:11:16.969Z,16.59
2022-10-14T00:13:43.481Z,16.57
2022-10-14T00:16:37.467Z,16.51
2022-10-14T00:19:04.828Z,16.50
2022-10-14T00:21:31.617Z,16.53
2022-10-14T00:23:58.050Z,16.50
2022-10-14T00:26:33.004Z,16.54
2022-10-14T00:29:00.682Z,16.55
2022-10-14T00:31:28.096Z,16.57
2022-10-14T00:33:55.151Z,16.53
2022-10-14T00:36:24.186Z,16.48
2022-10-14T00:38:51.381Z,16.46
2022-10-14T00:41:23.991Z,16.47
2022-10-14T00:43:54.833Z,16.49
2022-10-14T00:46:21.500Z,16.42
2022-10-14T00:48:47.922Z,16.47
2022-10-14T00:51:14.471Z,16.47
2022-10-14T00:53:42.663Z,16.45
2022-10-14T00:56:10.969Z,16.46
2022-10-14T00:58:38.411Z,16.47
2022-10-14T01:01:05.000Z,16.42
2022-10-14T01:03:33.857Z,16.46
2022-10-14T01:06:23.468Z,16.37
2022-10-14T01:09:14.443Z,16.29
2022-10-14T01:12:30.277Z,16.38
2022-10-14T01:15:11.723Z,16.40
2022-10-14T01:17:50.252Z,16.39
2022-10-14T01:20:31.973Z,16.32
2022-10-14T01:23:07.389Z,16.32
2022-10-14T01:26:03.016Z,16.32
2022-10-14T01:28:40.007Z,16.30
2022-10-14T01:31:13.478Z,16.26
2022-10-14T01:33:45.088Z,16.32
2022-10-14T01:36:22.594Z,16.29
2022-10-14T01:39:02.321Z,16.27
2022-10-14T01:41:32.082Z,16.21
2022-10-14T01:44:03.343Z,16.26
2022-10-14T01:46:30.665Z,16.22
2022-10-14T01:49:03.401Z,16.21
2022-10-14T01:51:42.431Z,16.25
2022-10-14T01:54:12.706Z,16.20
2022-10-14T01:56:40.670Z,16.21
2022-10-14T01:59:08.533Z,16.33
2022-10-14T02:01:36.607Z,16.31
2022-10-14T02:04:03.160Z,16.20
2022-10-14T02:06:34.868Z,16.20
2022-10-14T02:09:29.050Z,16.17
2022-10-14T02:12:08.657Z,16.13
2022-10-14T02:14:44.830Z,16.18
2022-10-14T02:17:33.480Z,16.18
2022-10-14T02:20:08.843Z,16.14
2022-10-14T02:22:38.534Z,16.12
2022-10-14T02:25:13.365Z,16.15
2022-10-14T02:27:39.959Z,16.14
2022-10-14T02:30:07.653Z,16.18
2022-10-14T02:32:34.218Z,16.19
2022-10-14T02:35:01.078Z,16.23
2022-10-14T02:37:28.327Z,16.21
2022-10-14T02:40:06.174Z,16.44
2022-10-14T02:42:32.981Z,16.43
2022-10-14T02:45:00.615Z,16.22
2022-10-14T02:47:27.390Z,16.32
2022-10-14T02:49:54.133Z,16.25
2022-10-14T02:52:20.916Z,16.23
2022-10-14T02:54:47.558Z,16.20
2022-10-14T02:57:13.970Z,16.22
2022-10-14T02:59:40.374Z,16.16
2022-10-14T03:02:07.592Z,16.13
2022-10-14T03:04:34.868Z,16.21
2022-10-14T03:07:01.448Z,16.23
2022-10-14T03:09:27.845Z,16.23
2022-10-14T03:11:54.243Z,16.19
2022-10-14T03:14:20.613Z,16.23
2022-10-14T03:16:47.185Z,16.23
2022-10-14T03:19:13.573Z,16.21
2022-10-14T03:21:40.125Z,16.19
2022-10-14T03:24:06.966Z,16.16
2022-10-14T03:26:33.677Z,16.11
2022-10-14T03:29:00.148Z,16.08
2022-10-14T03:31:26.682Z,15.96
2022-10-14T03:33:53.163Z,15.97
2022-10-14T03:36:19.604Z,15.93
2022-10-14T03:38:45.992Z,15.89
2022-10-14T03:41:12.390Z,15.92
2022-10-14T03:43:38.775Z,15.87
2022-10-14T03:46:05.328Z,15.84
2022-10-14T03:48:31.712Z,15.81
2022-10-14T03:50:58.101Z,15.77
2022-10-14T03:53:24.563Z,15.72
2022-10-14T03:55:50.976Z,15.69
2022-10-14T03:58:17.439Z,15.73
2022-10-14T04:00:44.703Z,15.74
2022-10-14T04:03:11.134Z,15.71
2022-10-14T04:05:37.633Z,15.77
2022-10-14T04:08:04.248Z,15.75
2022-10-14T04:10:31.090Z,15.81
2022-10-14T04:12:57.601Z,15.82
2022-10-14T04:15:24.278Z,15.77
2022-10-14T04:17:50.693Z,15.84
2022-10-14T04:20:17.729Z,15.88
2022-10-14T04:22:44.385Z,15.90
2022-10-14T04:25:10.896Z,15.90
2022-10-14T04:27:37.436Z,15.88
2022-10-14T04:30:05.258Z,15.92
2022-10-14T04:32:31.980Z,15.92
2022-10-14T04:34:58.414Z,15.85
2022-10-14T04:37:24.835Z,15.93
2022-10-14T04:39:51.226Z,16.00
2022-10-14T04:42:17.736Z,16.01
2022-10-14T04:44:44.121Z,15.96
2022-10-14T04:47:10.561Z,15.95
2022-10-14T04:49:36.937Z,15.95
2022-10-14T04:52:03.474Z,15.93
2022-10-14T04:54:30.745Z,15.99
2022-10-14T04:56:57.167Z,16.01
2022-10-14T04:59:23.569Z,16.09
2022-10-14T05:01:50.015Z,16.07
2022-10-14T05:04:16.513Z,16.12
2022-10-14T05:06:43.017Z,16.16
2022-10-14T05:09:09.450Z,16.12
2022-10-14T05:11:35.864Z,16.20
2022-10-14T05:14:02.404Z,16.17
2022-10-14T05:16:28.946Z,16.21
2022-10-14T05:18:55.311Z,16.20
2022-10-14T05:21:21.741Z,16.11
2022-10-14T05:23:48.281Z,16.22
2022-10-14T05:26:14.793Z,16.20
2022-10-14T05:28:41.262Z,16.25
2022-10-14T05:31:07.766Z,16.27
2022-10-14T05:33:34.617Z,16.33
2022-10-14T05:36:01.038Z,16.31
2022-10-14T05:38:27.540Z,16.34
2022-10-14T05:40:55.725Z,16.42
2022-10-14T05:43:22.365Z,16.49
2022-10-14T05:45:48.871Z,16.35
2022-10-14T05:48:15.270Z,16.29
2022-10-14T05:50:42.179Z,16.28
2022-10-14T05:53:08.545Z,16.25
2022-10-14T05:55:35.126Z,16.21
2022-10-14T05:58:01.566Z,16.28
2022-10-14T06:00:28.568Z,16.28
2022-10-14T06:02:57.857Z,16.28
2022-10-14T06:05:24.534Z,16.37
2022-10-14T06:07:50.931Z,16.36
2022-10-14T06:10:17.621Z,16.33
2022-10-14T06:12:44.022Z,16.31
2022-10-14T06:15:10.648Z,16.32
2022-10-14T06:17:37.130Z,16.32
2022-10-14T06:20:03.631Z,16.35
2022-10-14T06:22:30.831Z,16.43
2022-10-14T06:25:00.506Z,16.39
2022-10-14T06:27:30.453Z,16.34
2022-10-14T06:29:56.822Z,16.38
2022-10-14T06:32:23.839Z,16.41
2022-10-14T06:34:50.554Z,16.41
2022-10-14T06:37:17.018Z,16.39
2022-10-14T06:39:45.056Z,16.41
2022-10-14T06:42:13.257Z,16.43
2022-10-14T06:44:39.809Z,16.47
2022-10-14T06:47:07.001Z,16.59
2022-10-14T06:49:33.431Z,16.61
2022-10-14T06:51:59.842Z,16.63
2022-10-14T06:54:26.213Z,16.70
2022-10-14T06:56:52.633Z,16.74
2022-10-14T06:59:19.550Z,16.77
2022-10-14T07:01:46.093Z,16.78
2022-10-14T07:04:12.574Z,16.72
2022-10-14T07:06:39.102Z,16.80
2022-10-14T07:09:05.624Z,16.90
2022-10-14T07:11:32.037Z,16.88
2022-10-14T07:13:58.931Z,16.97
2022-10-14T07:16:25.409Z,17.05
2022-10-14T07:18:51.862Z,17.03
2022-10-14T07:21:18.473Z,17.10
2022-10-14T07:23:44.937Z,17.20
2022-10-14T07:26:11.540Z,17.26
2022-10-14T07:28:38.209Z,17.23
2022-10-14T07:31:09.540Z,17.23
2022-10-14T07:36:16.070Z,17.39
2022-10-14T07:38:45.575Z,17.41
2022-10-14T07:41:18.069Z,17.52
2022-10-14T07:43:49.418Z,17.49
2022-10-14T07:46:17.947Z,17.65
2022-10-14T07:48:56.783Z,17.74
2022-10-14T07:51:24.437Z,17.76
2022-10-14T07:53:52.834Z,17.74
2022-10-14T07:56:19.362Z,17.83
2022-10-14T07:58:46.526Z,18.02
2022-10-14T08:01:15.771Z,18.09
2022-10-14T08:03:43.279Z,18.14
2022-10-14T08:06:10.009Z,18.26
2022-10-14T08:08:36.511Z,18.27
2022-10-14T08:11:17.196Z,18.42
2022-10-14T08:13:46.376Z,18.54
2022-10-14T08:16:23.207Z,18.55
2022-10-14T08:18:50.288Z,18.72
2022-10-14T08:21:17.507Z,18.61
2022-10-14T08:23:43.895Z,18.65
2022-10-14T08:26:26.453Z,18.74
2022-10-14T08:28:52.943Z,18.85
2022-10-14T08:31:20.281Z,18.91
2022-10-14T08:33:47.260Z,19.05
2022-10-14T08:36:14.048Z,19.04
2022-10-14T08:38:41.076Z,19.11
2022-10-14T08:41:26.078Z,18.78
2022-10-14T08:44:19.410Z,18.54
2022-10-14T08:46:52.234Z,18.42
2022-10-14T08:49:31.121Z,18.23
2022-10-14T08:52:03.816Z,18.14
2022-10-14T08:54:57.926Z,18.00
2022-10-14T08:57:31.718Z,18.05
2022-10-14T08:59:58.143Z,18.12
2022-10-14T09:02:36.557Z,18.21
2022-10-14T09:05:03.820Z,18.47
2022-10-14T09:07:32.311Z,18.64
2022-10-14T09:10:02.654Z,18.70
2022-10-14T09:12:31.164Z,18.76
2022-10-14T09:15:16.088Z,18.91
2022-10-14T09:18:02.105Z,19.04
2022-10-14T09:20:28.537Z,19.36
2022-10-14T09:23:20.630Z,19.22
2022-10-14T09:26:12.088Z,19.30
2022-10-14T09:28:40.707Z,19.30
2022-10-14T09:31:11.391Z,19.15
2022-10-14T09:33:42.588Z,19.16
2022-10-14T09:36:20.700Z,19.20
2022-10-14T09:38:51.534Z,19.07
2022-10-14T09:41:20.410Z,19.05
2022-10-14T09:44:23.923Z,19.00
2022-10-14T09:46:52.991Z,19.06
2022-10-14T09:49:26.142Z,19.00
2022-10-14T09:51:52.618Z,19.14
2022-10-14T09:54:24.995Z,19.20
2022-10-14T09:57:07.988Z,19.40
2022-10-14T09:59:48.253Z,19.66
2022-10-14T10:02:35.196Z,19.80
2022-10-14T10:05:32.089Z,19.80
2022-10-14T10:08:31.103Z,19.86
2022-10-14T10:11:06.666Z,20.11
2022-10-14T10:13:46.281Z,20.18
2022-10-14T10:16:25.463Z,20.37
2022-10-14T10:18:53.983Z,20.31
2022-10-14T10:21:30.343Z,20.26
2022-10-14T10:23:59.179Z,20.18
2022-10-14T10:26:31.759Z,20.17
2022-10-14T10:28:59.596Z,20.32
2022-10-14T10:31:48.235Z,20.44
2022-10-14T10:34:36.551Z,20.23
2022-10-14T10:37:16.098Z,20.17
2022-10-14T10:40:05.712Z,20.15
2022-10-14T10:42:35.770Z,20.29
2022-10-14T10:45:16.367Z,20.40
2022-10-14T10:47:59.480Z,20.30
2022-10-14T10:50:30.519Z,20.44
2022-10-14T10:53:20.391Z,20.43
2022-10-14T10:55:59.228Z,20.41
2022-10-14T10:58:41.069Z,20.31
2022-10-14T11:01:45.244Z,20.25
2022-10-14T11:04:34.445Z,20.00
2022-10-14T11:07:27.022Z,20.10
2022-10-14T11:10:28.379Z,20.15
2022-10-14T11:13:23.084Z,20.11
2022-10-14T11:15:58.581Z,20.16
2022-10-14T11:18:34.930Z,20.13
2022-10-14T11:21:10.364Z,19.98
2022-10-14T11:23:59.853Z,19.94
2022-10-14T11:26:51.449Z,19.73
2022-10-14T11:29:35.295Z,19.60
2022-10-14T11:32:14.947Z,19.51
2022-10-14T11:35:09.664Z,19.64
2022-10-14T11:38:05.159Z,19.73
2022-10-14T11:40:38.145Z,19.81
2022-10-14T11:43:22.834Z,19.96
2022-10-14T11:45:59.579Z,20.09
2022-10-14T11:48:30.170Z,20.05
2022-10-14T11:51:05.179Z,20.08
2022-10-14T11:53:45.229Z,19.97
2022-10-14T11:56:25.760Z,20.08
2022-10-14T11:58:54.066Z,19.99
2022-10-14T12:01:25.259Z,19.88
2022-10-14T12:04:04.873Z,20.07
2022-10-14T12:06:35.716Z,20.23
2022-10-14T12:09:14.738Z,20.30
2022-10-14T12:11:50.088Z,20.26
2022-10-14T12:14:23.634Z,20.30
2022-10-14T12:16:50.896Z,20.62
2022-10-14T12:19:26.569Z,21.01
2022-10-14T12:22:04.997Z,21.32
2022-10-14T12:24:37.321Z,21.52
2022-10-14T12:27:05.865Z,21.63
2022-10-14T12:29:36.879Z,21.67
2022-10-14T12:32:03.201Z,21.68
2022-10-14T12:34:40.527Z,21.65
2022-10-14T12:37:28.885Z,21.35
2022-10-14T12:40:03.827Z,21.32
2022-10-14T12:42:32.669Z,21.21
2022-10-14T12:45:04.885Z,21.16
2022-10-14T12:47:36.020Z,21.15
2022-10-14T12:50:28.882Z,20.88
2022-10-14T12:53:02.383Z,20.88
2022-10-14T12:55:30.299Z,20.95
2022-10-14T12:58:03.561Z,21.09
2022-10-14T13:00:39.093Z,21.12
2022-10-14T13:03:17.280Z,21.20
2022-10-14T13:05:44.808Z,21.18
2022-10-14T13:08:20.281Z,21.29
2022-10-14T13:11:14.903Z,21.35
2022-10-14T13:13:53.584Z,21.47
2022-10-14T13:16:26.339Z,21.72
2022-10-14T13:18:59.666Z,21.71
2022-10-14T13:21:31.165Z,21.74
2022-10-14T13:24:00.920Z,21.60
2022-10-14T13:26:52.473Z,21.69
2022-10-14T13:29:40.238Z,21.30
2022-10-14T13:32:27.186Z,21.07
2022-10-14T13:35:14.834Z,20.90
2022-10-14T13:37:54.171Z,20.54
2022-10-14T13:40:30.041Z,20.49
2022-10-14T13:42:58.213Z,20.15
2022-10-14T13:45:32.234Z,20.07
2022-10-14T13:47:59.357Z,20.12
2022-10-14T13:50:31.538Z,20.15
2022-10-14T13:53:01.010Z,20.08
2022-10-14T13:55:27.498Z,20.05
2022-10-14T13:58:12.490Z,20.15
2022-10-14T14:00:43.087Z,20.30
2022-10-14T14:03:19.615Z,20.26
2022-10-14T14:05:46.200Z,20.32
2022-10-14T14:11:21.489Z,20.28
2022-10-14T14:14:01.498Z,20.20
2022-10-14T14:16:36.858Z,20.07
2022-10-14T14:19:08.418Z,20.08
2022-10-14T14:21:35.842Z,20.18
2022-10-14T14:24:03.961Z,20.22
2022-10-14T14:26:35.860Z,20.30
2022-10-14T14:29:24.676Z,20.39
2022-10-14T14:32:06.114Z,20.26
2022-10-14T14:34:34.614Z,20.38
2022-10-14T14:37:10.995Z,20.37
2022-10-14T14:39:58.920Z,20.41
2022-10-14T14:42:32.221Z,20.27
2022-10-14T14:45:04.958Z,20.12
2022-10-14T14:47:31.639Z,20.19
2022-10-14T14:50:24.981Z,20.35
2022-10-14T14:52:47.215Z,20.37
2022-10-14T14:55:41.104Z,20.21
2022-10-14T14:58:21.536Z,20.23
2022-10-14T15:00:49.873Z,20.15
2022-10-14T15:03:16.439Z,20.06
2022-10-14T15:05:53.144Z,19.99
2022-10-14T15:08:24.301Z,19.92
2022-10-14T15:10:51.250Z,20.01
2022-10-14T15:13:37.940Z,19.87
2022-10-14T15:16:05.013Z,19.80
2022-10-14T15:18:32.054Z,19.77
2022-10-14T15:21:19.119Z,19.67
2022-10-14T15:24:00.248Z,19.64
2022-10-14T15:26:31.286Z,19.59
2022-10-14T15:29:06.012Z,19.39
2022-10-14T15:31:32.682Z,19.53
2022-10-14T15:33:59.380Z,19.41
2022-10-14T15:36:26.569Z,19.35
2022-10-14T15:38:56.604Z,19.35
2022-10-14T15:41:22.976Z,19.29
2022-10-14T15:43:49.583Z,19.16
2022-10-14T15:46:34.548Z,19.20
2022-10-14T15:49:03.722Z,19.16
2022-10-14T15:51:31.284Z,19.17
2022-10-14T15:53:58.259Z,19.07
2022-10-14T15:56:24.709Z,18.91
2022-10-14T15:58:51.265Z,18.90
2022-10-14T16:01:20.453Z,18.91
2022-10-14T16:03:48.089Z,18.91
2022-10-14T16:06:16.015Z,18.87
2022-10-14T16:08:42.891Z,19.03
2022-10-14T16:11:18.122Z,18.99
2022-10-14T16:13:44.721Z,19.06
2022-10-14T16:16:12.877Z,18.91
2022-10-14T16:18:39.302Z,18.70
2022-10-14T16:21:05.992Z,18.80
2022-10-14T16:23:34.402Z,18.85
2022-10-14T16:26:01.148Z,18.67
2022-10-14T16:28:27.767Z,18.74
2022-10-14T16:30:54.182Z,18.82
2022-10-14T16:33:21.999Z,18.92
2022-10-14T16:35:53.617Z,18.86
2022-10-14T16:38:20.356Z,18.89
2022-10-14T16:40:57.455Z,18.86
2022-10-14T16:43:24.887Z,18.92
2022-10-14T16:45:51.372Z,18.88
2022-10-14T16:48:19.375Z,18.83
2022-10-14T16:50:50.413Z,18.80
2022-10-14T16:53:36.036Z,18.89
2022-10-14T16:56:02.758Z,18.89
2022-10-14T16:58:29.323Z,18.81
2022-10-14T17:00:56.072Z,18.87
2022-10-14T17:03:22.823Z,18.88
2022-10-14T17:05:56.745Z,18.84
2022-10-14T17:08:23.230Z,18.78
2022-10-14T17:10:49.779Z,18.76
2022-10-14T17:13:17.371Z,18.64
2022-10-14T17:15:44.270Z,18.59
2022-10-14T17:18:12.456Z,18.49
2022-10-14T17:20:39.238Z,18.46
2022-10-14T17:23:10.238Z,18.44
2022-10-14T17:25:39.242Z,18.43
2022-10-14T17:28:05.840Z,18.48
2022-10-14T17:30:32.218Z,18.55
2022-10-14T17:32:58.633Z,18.55
2022-10-14T17:35:25.041Z,18.57
2022-10-14T17:37:51.573Z,18.52
2022-10-14T17:40:18.089Z,18.51
2022-10-14T17:42:44.729Z,18.50
2022-10-14T17:45:11.217Z,18.43
2022-10-14T17:47:37.653Z,18.36
2022-10-14T17:50:05.354Z,18.34
2022-10-14T17:52:31.764Z,18.36
2022-10-14T17:55:00.583Z,18.35
2022-10-14T17:57:28.019Z,18.24
2022-10-14T17:59:54.576Z,18.26
2022-10-14T18:02:21.506Z,18.33
2022-10-14T18:04:48.140Z,18.27
2022-10-14T18:07:15.278Z,18.25
2022-10-14T18:09:43.482Z,18.23
2022-10-14T18:12:11.272Z,18.32
2022-10-14T18:14:38.690Z,18.53
2022-10-14T18:17:05.240Z,18.53
2022-10-14T18:19:31.982Z,18.48
2022-10-14T18:21:58.447Z,18.51
2022-10-14T18:24:24.961Z,18.41
2022-10-14T18:26:52.169Z,18.47
2022-10-14T18:29:18.624Z,18.59
2022-10-14T18:31:45.086Z,18.47
2022-10-14T18:34:11.834Z,18.60
2022-10-14T18:36:38.749Z,18.48
2022-10-14T18:39:07.898Z,18.47
2022-10-14T18:41:34.848Z,18.38
2022-10-14T18:44:01.305Z,18.44
2022-10-14T18:46:32.711Z,18.45
2022-10-14T18:49:00.395Z,18.28
2022-10-14T18:51:33.183Z,18.32
2022-10-14T18:54:02.392Z,18.25
2022-10-14T18:56:34.205Z,18.35
2022-10-14T19:01:37.161Z,18.43
2022-10-14T19:04:05.533Z,18.28
2022-10-14T19:06:32.833Z,18.25
2022-10-14T19:09:01.619Z,18.28
2022-10-14T19:11:29.084Z,18.31
2022-10-14T19:13:57.221Z,18.20
2022-10-14T19:16:28.991Z,18.07
2022-10-14T19:18:57.316Z,18.08
2022-10-14T19:21:26.758Z,18.11
2022-10-14T19:23:53.233Z,18.11
2022-10-14T19:26:23.194Z,18.09
2022-10-14T19:28:50.228Z,18.22
2022-10-14T19:31:19.052Z,18.23
2022-10-14T19:33:46.054Z,18.33
2022-10-14T19:36:14.648Z,18.38
2022-10-14T19:38:49.664Z,18.33
2022-10-14T19:41:16.147Z,18.41
2022-10-14T19:43:42.649Z,18.43
2022-10-14T19:46:10.695Z,18.42
2022-10-14T19:48:37.422Z,18.31
2022-10-14T19:51:07.042Z,18.35
2022-10-14T19:53:33.985Z,18.38
2022-10-14T19:56:04.929Z,18.42
2022-10-14T19:58:31.370Z,18.57
2022-10-14T20:00:58.290Z,18.76
2022-10-14T20:03:24.758Z,18.73
2022-10-14T20:06:00.941Z,18.80
2022-10-14T20:08:27.407Z,18.53
2022-10-14T20:10:53.797Z,18.46
2022-10-14T20:13:20.352Z,18.45
2022-10-14T20:15:53.722Z,18.51
2022-10-14T20:18:20.168Z,18.47
2022-10-14T20:20:46.755Z,18.41
2022-10-14T20:23:13.169Z,18.39
2022-10-14T20:25:41.270Z,18.29
2022-10-14T20:28:08.184Z,18.40
2022-10-14T20:30:35.023Z,18.37
2022-10-14T20:33:01.437Z,18.38
2022-10-14T20:37:55.259Z,18.38
2022-10-14T20:40:21.646Z,18.37
2022-10-14T20:42:48.189Z,18.33
2022-10-14T20:45:14.830Z,18.33
2022-10-14T20:47:41.313Z,18.31
2022-10-14T20:50:08.267Z,18.25
2022-10-14T20:52:34.768Z,18.30
2022-10-14T20:55:01.220Z,18.30
2022-10-14T20:57:27.664Z,18.29
2022-10-14T20:59:54.123Z,18.30
2022-10-14T21:02:21.261Z,18.23
2022-10-14T21:04:49.234Z,18.22
2022-10-14T21:07:16.109Z,18.22
2022-10-14T21:09:42.472Z,18.19
2022-10-14T21:12:08.878Z,18.21
2022-10-14T21:14:35.653Z,18.25
2022-10-14T21:17:02.321Z,18.27
2022-10-14T21:19:28.746Z,18.31
2022-10-14T21:21:55.402Z,18.26
2022-10-14T21:24:22.288Z,18.18
2022-10-14T21:26:52.034Z,18.22
2022-10-14T21:29:19.624Z,18.31
2022-10-14T21:31:46.727Z,18.31
2022-10-14T21:34:13.136Z,18.27
2022-10-14T21:36:39.937Z,18.27
2022-10-14T21:39:11.867Z,18.26
2022-10-14T21:41:38.894Z,18.26
2022-10-14T21:44:06.208Z,18.27
2022-10-14T21:46:33.512Z,18.25
2022-10-14T21:49:00.217Z,18.29
2022-10-14T21:51:28.795Z,18.27
2022-10-14T21:53:55.417Z,18.30
2022-10-14T21:56:22.048Z,18.35
2022-10-14T21:58:48.497Z,18.34
2022-10-14T22:01:17.535Z,18.33
2022-10-14T22:03:44.619Z,18.30
2022-10-14T22:06:14.399Z,18.37
2022-10-14T22:08:42.658Z,18.35
2022-10-14T22:11:20.123Z,18.34
2022-10-14T22:13:46.927Z,18.28
2022-10-14T22:16:16.657Z,18.43
2022-10-14T22:18:46.662Z,18.44
2022-10-14T22:21:15.462Z,18.50
2022-10-14T22:23:42.111Z,18.45
2022-10-14T22:26:12.351Z,18.36
2022-10-14T22:28:38.911Z,18.38
2022-10-14T22:31:11.223Z,18.48
2022-10-14T22:33:38.899Z,18.33
2022-10-14T22:36:19.466Z,18.44
2022-10-14T22:38:50.199Z,18.38
2022-10-14T22:41:17.962Z,18.28
2022-10-14T22:43:49.488Z,18.23
2022-10-14T22:46:19.467Z,18.16
2022-10-14T22:48:47.207Z,18.18
2022-10-14T22:51:15.990Z,18.15
2022-10-14T22:53:43.491Z,18.11
2022-10-14T22:56:13.144Z,17.93
2022-10-14T22:58:39.684Z,17.99
2022-10-14T23:01:13.800Z,17.79
2022-10-14T23:03:40.731Z,17.67
2022-10-14T23:06:09.698Z,17.56
2022-10-14T23:08:36.603Z,17.59
2022-10-14T23:11:04.256Z,17.51
2022-10-14T23:13:31.077Z,17.47
2022-10-14T23:16:02.723Z,17.38
2022-10-14T23:18:30.465Z,17.37
2022-10-14T23:20:57.049Z,17.33
2022-10-14T23:23:23.805Z,17.25
2022-10-14T23:25:50.211Z,17.15
2022-10-14T23:28:16.730Z,17.13
2022-10-14T23:30:43.181Z,17.10
2022-10-14T23:33:11.717Z,17.03
2022-10-14T23:35:39.022Z,16.99
2022-10-14T23:38:05.430Z,16.90
2022-10-14T23:40:31.876Z,16.87
2022-10-14T23:42:58.362Z,16.75
2022-10-14T23:45:24.807Z,16.79
2022-10-14T23:47:51.241Z,16.69
2022-10-14T23:50:17.676Z,16.65
2022-10-14T23:52:45.930Z,16.52
2022-10-14T23:55:12.989Z,16.50
2022-10-14T23:57:40.255Z,16.45
